Time;durP1;ratioP1;P1;durP2;ratioP2;P2;SDS_P1;SDS_P2;PMS_P1;PMS_P2;Temp;Humidity;BMP_temperature;BMP_pressure;BME280_temperature;BME280_humidity;BME280_pressure;Samples;Min_cycle;Max_cycle;Signal;HPM_P1;HPM_P2
2023/11/26 00:01:54;;;;;;;9.23;2.38;;;;;;;8.73;73.31;101732.75;5014621;28;20144;-49
2023/11/26 00:04:22;;;;;;;15.30;2.00;;;;;;;8.60;77.12;101748.78;5014503;28;20030;-46
2023/11/26 00:06:47;;;;;;;9.73;1.67;;;;;;;9.29;74.90;101735.53;5014389;28;20042;-46
2023/11/26 00:09:15;;;;;;;7.10;1.50;;;;;;;9.66;73.22;101726.25;5013551;28;20044;-48
2023/11/26 00:11:41;;;;;;;12.32;1.63;;;;;;;9.65;71.81;101721.88;5014089;28;20037;-45
2023/11/26 00:14:06;;;;;;;10.18;1.70;;;;;;;9.97;71.02;101717.66;5014419;28;20041;-43
2023/11/26 00:16:38;;;;;;;13.13;1.65;;;;;;;9.82;71.56;101709.41;5015082;28;20495;-45
2023/11/26 00:19:04;;;;;;;7.72;1.40;;;;;;;9.95;70.51;101715.00;5014128;28;20088;-48
2023/11/26 00:21:29;;;;;;;6.82;1.58;;;;;;;9.64;71.47;101709.69;5014407;28;20033;-45
2023/11/26 00:23:55;;;;;;;8.27;1.65;;;;;;;9.85;70.32;101712.06;5012927;28;20045;-52
2023/11/26 00:26:21;;;;;;;5.00;1.48;;;;;;;9.86;69.68;101703.44;5013176;28;20044;-45
2023/11/26 00:28:46;;;;;;;7.10;1.63;;;;;;;9.76;69.31;101699.66;5013616;28;20032;-45
2023/11/26 00:31:12;;;;;;;12.73;1.42;;;;;;;9.70;69.26;101702.06;5012885;28;20152;-46
2023/11/26 00:33:37;;;;;;;5.18;1.30;;;;;;;9.65;68.66;101704.53;5013130;28;20053;-49
2023/11/26 00:36:03;;;;;;;5.22;1.48;;;;;;;9.63;68.55;101705.34;5012293;28;20310;-45
2023/11/26 00:38:28;;;;;;;4.75;1.17;;;;;;;9.51;68.50;101695.47;5011595;28;20084;-46
2023/11/26 00:40:53;;;;;;;7.55;1.40;;;;;;;9.51;68.19;101694.56;5012717;28;20041;-46
2023/11/26 00:43:19;;;;;;;4.68;1.20;;;;;;;9.42;68.82;101695.16;5014600;28;20088;-44
2023/11/26 00:45:45;;;;;;;7.13;1.45;;;;;;;9.17;69.29;101696.09;5012841;28;20034;-45
2023/11/26 00:48:10;;;;;;;4.72;1.30;;;;;;;9.18;68.89;101699.59;5013179;28;20493;-47
2023/11/26 00:50:35;;;;;;;5.18;1.20;;;;;;;9.21;69.41;101697.97;5013420;28;20053;-45
2023/11/26 00:53:01;;;;;;;7.93;2.30;;;;;;;9.22;68.99;101699.72;5013414;28;20443;-46
2023/11/26 00:55:26;;;;;;;3.40;1.05;;;;;;;9.26;68.82;101700.72;5014414;28;20099;-51
2023/11/26 00:57:51;;;;;;;4.30;1.17;;;;;;;9.26;69.15;101701.63;5012048;28;20092;-46
2023/11/26 01:00:17;;;;;;;5.85;1.42;;;;;;;9.23;69.82;101711.03;5012193;28;20022;-47
2023/11/26 01:02:44;;;;;;;7.03;1.50;;;;;;;8.91;71.98;101713.44;5012414;28;20492;-51
2023/11/26 01:05:10;;;;;;;7.35;1.92;;;;;;;8.98;72.13;101714.53;5011877;28;20097;-43
2023/11/26 01:07:36;;;;;;;9.80;1.70;;;;;;;9.12;72.37;101715.88;5012190;28;20037;-48
2023/11/26 01:10:01;;;;;;;10.30;1.60;;;;;;;8.98;73.58;101716.25;5010306;28;20041;-46
2023/11/26 01:12:27;;;;;;;8.93;1.98;;;;;;;8.92;74.28;101715.22;5012013;28;20396;-45
2023/11/26 01:14:53;;;;;;;10.40;1.73;;;;;;;9.38;72.87;101714.13;5012196;28;20096;-48
2023/11/26 01:17:18;;;;;;;9.70;1.80;;;;;;;9.54;71.78;101711.16;5013238;28;20033;-46
2023/11/26 01:19:43;;;;;;;8.32;1.48;;;;;;;9.58;71.39;101715.59;5012734;28;20061;-48
2023/11/26 01:22:09;;;;;;;11.75;1.52;;;;;;;9.63;70.95;101713.16;5011683;28;20381;-45
2023/11/26 01:24:34;;;;;;;11.23;1.63;;;;;;;9.53;71.45;101726.72;5012583;28;20045;-47
2023/11/26 01:27:00;;;;;;;7.93;1.50;;;;;;;9.63;71.36;101719.25;5012829;28;20071;-47
2023/11/26 01:29:25;;;;;;;8.18;1.40;;;;;;;9.70;71.06;101715.09;5013524;28;20045;-46
2023/11/26 01:31:50;;;;;;;5.88;1.40;;;;;;;9.72;70.86;101721.25;5013648;28;20034;-44
2023/11/26 01:34:16;;;;;;;8.85;1.60;;;;;;;9.53;71.67;101727.59;5015697;28;20030;-49
2023/11/26 01:36:41;;;;;;;5.63;1.25;;;;;;;9.64;71.47;101727.94;5016643;28;20091;-44
2023/11/26 01:39:07;;;;;;;4.80;1.40;;;;;;;9.72;71.46;101727.34;5016887;28;20098;-48
2023/11/26 01:41:33;;;;;;;6.18;1.40;;;;;;;9.77;71.54;101715.34;5016334;28;20037;-45
2023/11/26 01:43:58;;;;;;;4.28;1.27;;;;;;;9.87;71.21;101711.31;5013399;28;20122;-43
2023/11/26 01:46:24;;;;;;;10.27;1.40;;;;;;;9.88;71.11;101709.59;5013323;28;20076;-44
2023/11/26 01:48:50;;;;;;;9.02;1.70;;;;;;;9.87;70.97;101710.41;5012652;28;20037;-43
2023/11/26 01:51:18;;;;;;;6.03;1.25;;;;;;;9.89;70.89;101708.72;5013013;28;20443;-47
2023/11/26 01:53:48;;;;;;;5.45;1.13;;;;;;;9.87;70.74;101708.69;5010895;28;20033;-46
2023/11/26 01:56:15;;;;;;;5.45;1.27;;;;;;;9.83;70.85;101711.13;5011968;28;20438;-45
2023/11/26 01:58:40;;;;;;;3.85;1.30;;;;;;;9.79;70.68;101707.56;5012026;28;20083;-47
2023/11/26 02:01:06;;;;;;;6.38;1.50;;;;;;;9.71;70.56;101712.53;5011290;28;20348;-46
2023/11/26 02:03:31;;;;;;;2.83;1.00;;;;;;;9.69;70.54;101711.63;5011502;28;20034;-50
2023/11/26 02:05:57;;;;;;;5.65;1.10;;;;;;;9.67;70.39;101708.09;5010955;28;20046;-44
2023/11/26 02:08:22;;;;;;;9.25;1.42;;;;;;;9.50;71.33;101704.09;5011440;28;20034;-45
2023/11/26 02:10:48;;;;;;;6.28;1.20;;;;;;;9.58;70.85;101702.59;5011221;28;20030;-51
2023/11/26 02:13:13;;;;;;;4.53;1.10;;;;;;;9.59;70.63;101704.38;5011791;28;20479;-49
2023/11/26 02:15:39;;;;;;;4.75;1.13;;;;;;;9.50;70.91;101714.50;5011327;28;20030;-45
2023/11/26 02:18:04;;;;;;;8.55;1.33;;;;;;;9.47;71.17;101711.78;5010850;28;20087;-46
2023/11/26 02:20:30;;;;;;;7.43;1.27;;;;;;;9.52;71.16;101705.00;5009987;28;20025;-46
2023/11/26 02:22:55;;;;;;;8.95;1.33;;;;;;;9.46;71.30;101714.34;5010851;28;20042;-44
2023/11/26 02:25:23;;;;;;;6.30;1.27;;;;;;;9.54;70.65;101712.88;5011608;28;20121;-49
2023/11/26 02:27:49;;;;;;;8.80;1.35;;;;;;;9.55;70.87;101709.44;5010899;28;20037;-50
2023/11/26 02:30:20;;;;;;;7.05;1.23;;;;;;;9.55;70.61;101705.13;5011189;28;20030;-48
2023/11/26 02:32:45;;;;;;;6.38;0.90;;;;;;;9.58;71.07;101704.31;5011163;28;20048;-51
2023/11/26 02:35:11;;;;;;;6.10;1.25;;;;;;;9.60;71.32;101711.34;5010731;28;20029;-48
2023/11/26 02:37:36;;;;;;;5.82;1.20;;;;;;;9.66;71.06;101713.25;5011200;28;20515;-46
2023/11/26 02:40:05;;;;;;;7.68;1.25;;;;;;;9.36;72.83;101714.06;5010246;28;20065;-45
2023/11/26 02:42:30;;;;;;;5.55;1.10;;;;;;;9.71;71.84;101703.84;5011088;28;20033;-46
2023/11/26 02:44:56;;;;;;;6.93;1.13;;;;;;;9.86;71.13;101701.72;5010050;28;20041;-52
2023/11/26 02:47:22;;;;;;;4.50;0.88;;;;;;;9.85;71.42;101705.16;5010801;28;20038;-49
2023/11/26 02:49:47;;;;;;;5.85;1.23;;;;;;;9.84;71.13;101695.56;5010578;28;20412;-47
2023/11/26 02:52:12;;;;;;;7.13;0.90;;;;;;;9.85;70.94;101693.84;5010252;28;20037;-46
2023/11/26 02:54:38;;;;;;;10.15;1.10;;;;;;;9.84;70.83;101699.88;5010662;28;20030;-46
2023/11/26 02:57:06;;;;;;;6.85;1.17;;;;;;;9.81;70.78;101699.81;5010166;28;20060;-45
2023/11/26 02:59:31;;;;;;;7.47;1.20;;;;;;;9.76;70.47;101695.34;5010033;28;20033;-48
2023/11/26 03:01:59;;;;;;;7.10;1.27;;;;;;;9.74;70.61;101696.16;5010394;28;20598;-47
2023/11/26 03:04:25;;;;;;;6.65;1.15;;;;;;;9.74;70.40;101696.16;5009117;28;20033;-47
2023/11/26 03:06:52;;;;;;;7.45;2.00;;;;;;;9.71;71.03;101696.03;5009026;28;20475;-46
2023/11/26 03:09:41;;;;;;;6.35;1.33;;;;;;;9.71;71.15;101691.72;5010525;28;20084;-45
2023/11/26 03:14:53;;;;;;;5.72;1.20;;;;;;;9.57;71.98;101695.66;5010171;28;20092;-46
2023/11/26 03:17:18;;;;;;;6.28;1.30;;;;;;;9.69;71.44;101700.34;5009207;28;20079;-47
2023/11/26 03:19:47;;;;;;;9.77;1.30;;;;;;;9.62;71.58;101698.38;5009340;28;20030;-45
2023/11/26 03:22:13;;;;;;;8.73;1.13;;;;;;;9.73;71.46;101699.59;5011340;28;20037;-48
2023/11/26 03:24:38;;;;;;;9.40;1.00;;;;;;;9.77;71.40;101702.31;5011001;28;20030;-45
2023/11/26 03:27:04;;;;;;;5.05;1.20;;;;;;;9.80;71.21;101698.94;5011154;28;20042;-44
2023/11/26 03:29:29;;;;;;;7.93;1.27;;;;;;;9.77;70.86;101699.72;5011300;28;20026;-46
2023/11/26 03:31:55;;;;;;;6.10;1.13;;;;;;;9.73;70.85;101695.25;5010003;28;20038;-49
2023/11/26 03:34:23;;;;;;;7.80;1.15;;;;;;;9.70;70.97;101694.25;5013384;28;20037;-47
2023/11/26 03:36:48;;;;;;;11.77;1.30;;;;;;;9.63;70.60;101693.22;5016295;28;20084;-47
2023/11/26 03:39:13;;;;;;;6.10;1.30;;;;;;;9.58;71.06;101699.09;5016556;28;20034;-47
2023/11/26 03:41:39;;;;;;;7.85;1.40;;;;;;;9.53;70.88;101690.28;5015638;28;20094;-45
2023/11/26 03:44:04;;;;;;;8.23;1.10;;;;;;;9.47;70.74;101690.09;5016400;28;20111;-47
2023/11/26 03:46:32;;;;;;;12.02;1.50;;;;;;;9.48;70.66;101692.75;5016817;28;20038;-49
2023/11/26 03:49:01;;;;;;;6.85;1.15;;;;;;;9.38;71.09;101697.63;5016222;28;20034;-47
2023/11/26 03:51:28;;;;;;;8.10;1.40;;;;;;;9.27;71.56;101689.50;5017205;28;20538;-46
2023/11/26 03:53:53;;;;;;;8.32;1.20;;;;;;;9.25;71.51;101696.34;5017143;28;20026;-46
2023/11/26 03:56:19;;;;;;;5.38;1.27;;;;;;;9.36;71.30;101689.75;5016724;28;20029;-48
2023/11/26 03:58:45;;;;;;;7.25;1.20;;;;;;;9.43;71.04;101689.13;5016601;28;20487;-47
2023/11/26 04:01:11;;;;;;;5.63;0.98;;;;;;;9.38;70.84;101693.31;5016149;28;20029;-45
2023/11/26 04:03:37;;;;;;;5.40;1.05;;;;;;;8.96;72.28;101701.47;5016583;28;20041;-51
2023/11/26 04:06:02;;;;;;;4.72;1.20;;;;;;;9.17;72.09;101700.41;5015825;28;20026;-47
2023/11/26 04:08:27;;;;;;;6.38;1.23;;;;;;;9.21;72.12;101699.72;5016350;28;20484;-45
2023/11/26 04:10:53;;;;;;;10.95;1.30;;;;;;;9.15;73.18;101702.97;5015374;28;20038;-44
2023/11/26 04:13:18;;;;;;;6.13;0.90;;;;;;;9.44;71.97;101709.13;5016126;28;20100;-44
2023/11/26 04:15:46;;;;;;;10.95;1.67;;;;;;;9.52;71.77;101701.50;5016290;28;20037;-48
2023/11/26 04:18:12;;;;;;;9.48;1.52;;;;;;;9.56;71.63;101712.09;5016121;28;20030;-46
2023/11/26 04:20:38;;;;;;;7.00;1.42;;;;;;;9.50;72.09;101698.00;5016445;28;20052;-46
2023/11/26 04:23:03;;;;;;;9.77;1.30;;;;;;;9.63;72.53;101705.34;5016089;28;20125;-48
2023/11/26 04:25:29;;;;;;;8.57;1.50;;;;;;;9.56;73.01;101706.00;5017646;28;20097;-43
2023/11/26 04:27:55;;;;;;;8.18;1.23;;;;;;;9.68;72.41;101711.59;5018434;28;20407;-45
2023/11/26 04:30:21;;;;;;;5.95;1.13;;;;;;;9.84;72.39;101708.59;5015783;28;20048;-45
2023/11/26 04:32:47;;;;;;;10.10;1.25;;;;;;;9.96;71.97;101713.28;5016265;28;20057;-48
2023/11/26 04:35:12;;;;;;;8.65;1.10;;;;;;;10.00;71.72;101710.78;5015736;28;20400;-48
2023/11/26 04:37:37;;;;;;;7.63;1.10;;;;;;;10.01;71.76;101706.47;5016003;28;20030;-47
2023/11/26 04:40:05;;;;;;;6.55;1.10;;;;;;;9.98;71.74;101703.78;5016271;28;20492;-46
2023/11/26 04:42:32;;;;;;;5.63;1.30;;;;;;;9.93;72.09;101701.06;5017222;28;20041;-45
2023/11/26 04:44:57;;;;;;;7.10;1.30;;;;;;;9.84;72.24;101702.50;5015949;28;20044;-45
2023/11/26 04:47:23;;;;;;;4.68;1.10;;;;;;;9.93;71.74;101703.66;5013716;28;20039;-48
2023/11/26 04:49:48;;;;;;;7.43;1.13;;;;;;;9.81;72.50;101699.81;5012523;28;20036;-51
2023/11/26 04:52:13;;;;;;;10.10;1.63;;;;;;;9.74;72.09;101702.25;5013464;28;20679;-49
2023/11/26 04:54:38;;;;;;;6.30;1.30;;;;;;;9.88;71.77;101697.41;5014345;28;20411;-47
2023/11/26 04:57:04;;;;;;;7.90;1.23;;;;;;;9.90;71.14;101697.47;5013046;28;20240;-48
2023/11/26 04:59:29;;;;;;;6.45;1.10;;;;;;;9.89;71.10;101699.19;5011516;28;20034;-48
2023/11/26 05:01:55;;;;;;;7.72;1.00;;;;;;;9.86;71.12;101696.50;5012252;28;20034;-48
2023/11/26 05:04:21;;;;;;;7.57;1.20;;;;;;;9.83;71.77;101699.00;5012516;28;20029;-45
2023/11/26 05:06:46;;;;;;;8.15;1.20;;;;;;;9.86;71.54;101701.72;5012392;28;20030;-47
2023/11/26 05:09:12;;;;;;;5.90;1.20;;;;;;;9.87;71.76;101700.00;5011562;28;20040;-45
2023/11/26 05:11:42;;;;;;;9.73;1.55;;;;;;;10.05;71.25;101709.22;5011121;28;20033;-51
2023/11/26 05:14:07;;;;;;;7.30;1.20;;;;;;;9.84;71.88;101703.38;5012073;28;20073;-46
2023/11/26 05:16:33;;;;;;;7.32;1.30;;;;;;;9.91;72.11;101704.44;5012686;28;20057;-49
2023/11/26 05:18:59;;;;;;;8.70;1.17;;;;;;;10.02;72.05;101708.25;5011970;28;20080;-47
2023/11/26 05:21:24;;;;;;;8.25;1.40;;;;;;;9.94;72.70;101720.19;5012050;28;20501;-50
2023/11/26 05:23:49;;;;;;;9.52;1.38;;;;;;;9.44;73.90;101727.34;5011973;28;20404;-48
2023/11/26 05:26:15;;;;;;;6.40;1.35;;;;;;;9.58;73.58;101727.75;5012110;28;20141;-46
2023/11/26 05:28:40;;;;;;;9.00;1.20;;;;;;;9.70;74.92;101726.41;5012389;28;20034;-49
2023/11/26 05:31:06;;;;;;;12.90;1.40;;;;;;;9.93;73.69;101716.69;5012350;28;20459;-45
2023/11/26 05:33:31;;;;;;;8.70;1.20;;;;;;;10.07;73.21;101704.03;5013999;28;20053;-46
2023/11/26 05:35:56;;;;;;;10.48;1.20;;;;;;;10.25;72.47;101706.31;5013328;28;20480;-50
2023/11/26 05:38:22;;;;;;;5.65;1.20;;;;;;;10.31;71.65;101701.25;5014380;28;20061;-44
2023/11/26 05:40:48;;;;;;;8.68;1.35;;;;;;;10.12;72.06;101699.88;5014676;28;20040;-45
2023/11/26 05:43:13;;;;;;;6.72;1.10;;;;;;;10.17;71.48;101693.09;5015352;28;20044;-48
2023/11/26 05:45:39;;;;;;;7.07;1.15;;;;;;;10.15;71.41;101693.00;5014197;28;20083;-45
2023/11/26 05:48:06;;;;;;;4.75;1.00;;;;;;;10.11;71.16;101687.66;5014137;28;20033;-45
2023/11/26 05:50:31;;;;;;;7.10;1.20;;;;;;;10.08;71.03;101691.06;5011958;28;20067;-52
2023/11/26 05:52:56;;;;;;;5.63;1.10;;;;;;;10.07;70.88;101688.41;5010085;28;20037;-49
2023/11/26 05:55:22;;;;;;;4.93;1.05;;;;;;;9.99;71.23;101695.13;5011653;28;20034;-49
2023/11/26 05:57:48;;;;;;;7.43;1.05;;;;;;;9.72;71.49;101684.78;5010968;28;20048;-47
2023/11/26 06:00:14;;;;;;;7.28;1.15;;;;;;;9.73;72.13;101692.66;5011145;28;20387;-45
2023/11/26 06:02:40;;;;;;;3.85;1.15;;;;;;;9.84;71.29;101690.34;5012056;28;20026;-44
2023/11/26 06:05:07;;;;;;;7.05;1.20;;;;;;;9.87;70.84;101686.97;5011332;28;20038;-47
2023/11/26 06:07:33;;;;;;;5.10;1.23;;;;;;;9.87;70.94;101689.56;5011576;28;20045;-47
2023/11/26 06:09:58;;;;;;;5.78;1.50;;;;;;;9.83;71.41;101699.00;5010541;28;20034;-51
2023/11/26 06:12:23;;;;;;;6.55;1.15;;;;;;;9.65;71.55;101698.47;5011731;28;20041;-47
2023/11/26 06:14:49;;;;;;;4.35;1.00;;;;;;;9.76;71.49;101691.84;5011018;28;20057;-47
2023/11/26 06:17:15;;;;;;;6.22;1.25;;;;;;;9.87;71.25;101695.66;5011553;28;20117;-49
2023/11/26 06:19:40;;;;;;;16.65;1.20;;;;;;;9.77;71.70;101691.91;5011252;28;20037;-44
2023/11/26 06:22:05;;;;;;;4.22;1.10;;;;;;;9.87;71.29;101692.19;5010949;28;20034;-49
2023/11/26 06:24:32;;;;;;;9.55;1.23;;;;;;;9.65;72.07;101695.84;5011979;28;20084;-50
2023/11/26 06:26:57;;;;;;;8.05;1.30;;;;;;;9.84;71.59;101689.47;5010942;28;20058;-49
2023/11/26 06:29:22;;;;;;;6.03;1.30;;;;;;;9.68;72.51;101711.59;5011669;28;20054;-45
2023/11/26 06:31:48;;;;;;;6.10;1.05;;;;;;;9.32;74.51;101711.34;5011274;28;20033;-47
2023/11/26 06:34:13;;;;;;;12.30;1.33;;;;;;;9.25;74.86;101710.25;5011853;28;20041;-44
2023/11/26 06:36:38;;;;;;;7.93;1.40;;;;;;;9.55;73.97;101712.94;5012401;28;20087;-44
2023/11/26 06:39:08;;;;;;;7.93;1.30;;;;;;;9.84;72.58;101710.31;5012481;28;20511;-46
2023/11/26 06:41:41;;;;;;;4.30;1.27;;;;;;;9.92;72.32;101714.03;5011784;28;20506;-45
2023/11/26 06:44:06;;;;;;;8.43;1.30;;;;;;;9.93;72.23;101714.09;5010117;28;20091;-47
2023/11/26 06:46:32;;;;;;;8.82;1.50;;;;;;;9.97;71.94;101713.31;5011010;28;20037;-46
2023/11/26 06:48:58;;;;;;;7.65;1.23;;;;;;;9.99;71.92;101711.66;5010215;28;20041;-48
2023/11/26 06:51:24;;;;;;;6.22;1.35;;;;;;;10.01;72.23;101704.75;5010203;28;20030;-46
2023/11/26 06:53:50;;;;;;;8.63;1.45;;;;;;;9.98;72.25;101706.41;5010344;28;20385;-46
2023/11/26 06:56:17;;;;;;;6.40;1.27;;;;;;;9.99;71.95;101703.84;5010205;28;20030;-46
2023/11/26 06:58:44;;;;;;;6.63;1.25;;;;;;;10.04;72.01;101706.56;5010466;28;20033;-49
2023/11/26 07:01:10;;;;;;;9.10;1.70;;;;;;;10.01;72.40;101706.47;5010372;28;20041;-45
2023/11/26 07:03:37;;;;;;;7.85;1.30;;;;;;;9.99;72.42;101708.16;5010757;28;20037;-48
2023/11/26 07:06:08;;;;;;;6.57;1.40;;;;;;;10.04;71.88;101702.25;5010006;28;20042;-45
2023/11/26 07:08:36;;;;;;;7.25;1.40;;;;;;;9.89;72.33;101703.50;5009797;28;20034;-44
2023/11/26 07:11:02;;;;;;;7.13;1.23;;;;;;;9.99;71.94;101701.25;5009802;28;20038;-45
2023/11/26 07:13:28;;;;;;;5.60;1.20;;;;;;;10.05;71.85;101698.81;5010211;28;20141;-46
2023/11/26 07:15:54;;;;;;;9.52;1.52;;;;;;;10.07;71.67;101697.09;5009810;28;20038;-46
2023/11/26 07:18:19;;;;;;;6.55;1.50;;;;;;;9.93;72.49;101697.56;5010383;28;20026;-49
2023/11/26 07:20:45;;;;;;;6.45;1.45;;;;;;;9.87;72.81;101697.41;5010202;28;20048;-48
2023/11/26 07:23:11;;;;;;;6.00;1.30;;;;;;;9.67;73.53;101697.69;5009809;28;20125;-46
2023/11/26 07:25:39;;;;;;;6.45;1.60;;;;;;;9.76;72.75;101695.34;5010473;28;20030;-48
2023/11/26 07:28:04;;;;;;;6.25;1.48;;;;;;;9.83;72.51;101701.59;5009606;28;20151;-44
2023/11/26 07:30:30;;;;;;;9.00;1.75;;;;;;;9.75;73.21;101701.41;5008866;28;20109;-46
2023/11/26 07:32:55;;;;;;;9.15;1.50;;;;;;;9.90;72.57;101702.69;5010093;28;20061;-45
2023/11/26 07:35:21;;;;;;;8.07;1.60;;;;;;;9.96;72.13;101701.13;5010170;28;20079;-44
2023/11/26 07:37:46;;;;;;;8.57;2.03;;;;;;;9.98;72.19;101702.06;5010343;28;20037;-46
2023/11/26 07:40:15;;;;;;;9.48;1.77;;;;;;;9.94;72.31;101705.41;5009664;28;20033;-44
2023/11/26 07:42:41;;;;;;;6.47;1.50;;;;;;;9.94;72.78;101699.34;5010385;28;20030;-48
2023/11/26 07:45:08;;;;;;;6.85;1.50;;;;;;;9.97;72.19;101696.81;5010446;28;20037;-48
2023/11/26 07:47:33;;;;;;;10.48;1.50;;;;;;;10.05;72.56;101701.41;5010910;28;20042;-45
2023/11/26 07:49:58;;;;;;;7.05;1.63;;;;;;;10.05;72.49;101695.31;5010180;28;20542;-47
2023/11/26 07:52:24;;;;;;;10.57;1.88;;;;;;;10.02;72.79;101703.03;5010695;28;20030;-48
2023/11/26 07:54:49;;;;;;;5.63;1.67;;;;;;;10.17;72.88;101708.72;5009467;28;20044;-47
2023/11/26 07:57:15;;;;;;;6.47;1.98;;;;;;;10.08;72.71;101701.47;5010276;28;20048;-48
2023/11/26 07:59:43;;;;;;;11.00;2.00;;;;;;;10.11;73.17;101711.13;5011143;28;20172;-44
2023/11/26 08:02:10;;;;;;;4.85;2.03;;;;;;;10.26;72.54;101705.47;5010521;28;20079;-46
2023/11/26 08:04:35;;;;;;;11.73;1.90;;;;;;;10.28;72.73;101712.50;5010707;28;20053;-48
2023/11/26 08:07:01;;;;;;;8.60;2.20;;;;;;;10.20;73.44;101713.13;5009823;28;20050;-45
2023/11/26 08:09:29;;;;;;;10.73;2.28;;;;;;;10.33;72.57;101710.03;5008515;28;20026;-44
2023/11/26 08:11:57;;;;;;;10.32;2.15;;;;;;;10.27;73.42;101712.47;5009317;28;20045;-44
2023/11/26 08:14:25;;;;;;;8.75;2.20;;;;;;;10.42;73.40;101720.72;5009640;28;20141;-47
2023/11/26 08:16:50;;;;;;;10.02;2.20;;;;;;;10.53;73.07;101716.66;5009384;28;20404;-48
2023/11/26 08:19:18;;;;;;;8.88;2.08;;;;;;;10.41;73.49;101714.63;5009120;28;20030;-51
2023/11/26 08:21:44;;;;;;;10.27;2.40;;;;;;;10.74;72.82;101703.28;5013001;28;20034;-48
2023/11/26 08:24:15;;;;;;;6.47;1.83;;;;;;;10.68;72.90;101697.91;5012569;28;20536;-46
2023/11/26 08:26:41;;;;;;;11.98;2.38;;;;;;;10.60;73.07;101702.06;5013527;28;20037;-48
2023/11/26 08:29:09;;;;;;;8.32;1.98;;;;;;;10.46;73.38;101701.69;5013267;28;20029;-48
2023/11/26 08:31:35;;;;;;;12.05;2.15;;;;;;;10.47;74.08;101703.47;5013191;28;20053;-49
2023/11/26 08:34:03;;;;;;;6.30;2.03;;;;;;;10.79;73.28;101702.59;5012390;28;20045;-50
2023/11/26 08:36:31;;;;;;;10.52;2.00;;;;;;;10.85;73.03;101701.88;5013408;28;20054;-46
2023/11/26 08:38:57;;;;;;;7.80;1.90;;;;;;;10.81;72.80;101702.63;5012831;28;20036;-44
2023/11/26 08:41:22;;;;;;;7.55;2.00;;;;;;;10.88;72.91;101701.94;5013370;28;20483;-45
2023/11/26 08:43:49;;;;;;;8.32;2.08;;;;;;;10.96;72.82;101701.28;5013167;28;20038;-45
2023/11/26 08:46:16;;;;;;;7.80;2.00;;;;;;;11.03;72.78;101696.22;5013629;28;20072;-44
2023/11/26 08:48:41;;;;;;;6.28;2.00;;;;;;;11.07;72.75;101693.72;5013914;28;20503;-49
2023/11/26 08:51:08;;;;;;;9.27;2.35;;;;;;;11.14;72.92;101693.03;5013841;28;20041;-44
2023/11/26 08:53:33;;;;;;;9.20;2.10;;;;;;;11.08;72.74;101695.50;5013608;28;20029;-43
2023/11/26 08:56:00;;;;;;;6.43;2.15;;;;;;;11.10;72.96;101703.38;5013963;28;20044;-46
2023/11/26 08:58:26;;;;;;;8.77;2.00;;;;;;;11.27;72.56;101697.69;5014168;28;20038;-49
2023/11/26 09:00:51;;;;;;;9.75;2.28;;;;;;;11.18;73.00;101697.47;5012840;28;20103;-44
2023/11/26 09:03:16;;;;;;;8.20;2.35;;;;;;;11.26;72.97;101702.88;5014002;28;20065;-47
2023/11/26 09:05:42;;;;;;;6.28;2.13;;;;;;;11.35;72.74;101698.72;5014141;28;20116;-45
2023/11/26 09:08:07;;;;;;;9.13;2.40;;;;;;;11.37;72.74;101694.44;5012116;28;20038;-46
2023/11/26 09:10:34;;;;;;;9.60;2.85;;;;;;;11.41;72.98;101698.00;5012429;28;20029;-45
2023/11/26 09:12:59;;;;;;;9.80;2.40;;;;;;;11.54;72.75;101700.03;5012906;28;20037;-47
2023/11/26 09:15:26;;;;;;;14.60;2.40;;;;;;;11.62;72.57;101695.88;5013296;28;20129;-48
2023/11/26 09:17:52;;;;;;;9.38;2.22;;;;;;;11.62;72.66;101687.16;5012796;28;20554;-46
2023/11/26 09:20:17;;;;;;;9.73;2.38;;;;;;;11.68;72.55;101692.53;5013378;28;20041;-43
2023/11/26 09:22:42;;;;;;;8.93;2.55;;;;;;;11.71;72.77;101695.22;5013916;28;20072;-51
2023/11/26 09:25:10;;;;;;;7.90;2.65;;;;;;;11.40;73.03;101688.44;5012394;28;20069;-45
2023/11/26 09:27:36;;;;;;;10.48;2.58;;;;;;;11.48;73.07;101684.25;5013359;28;20249;-46
2023/11/26 09:30:04;;;;;;;10.60;2.35;;;;;;;11.73;72.54;101681.34;5011334;28;20070;-47
2023/11/26 09:32:30;;;;;;;12.93;2.42;;;;;;;11.79;72.51;101681.47;5012645;28;20037;-49
2023/11/26 09:34:55;;;;;;;9.40;2.50;;;;;;;11.74;72.38;101688.34;5013039;28;20496;-49
2023/11/26 09:37:20;;;;;;;9.02;2.20;;;;;;;11.65;72.49;101693.31;5013507;28;20120;-44
2023/11/26 09:39:46;;;;;;;10.77;2.17;;;;;;;11.63;72.57;101688.94;5014645;28;20535;-47
2023/11/26 09:42:12;;;;;;;9.20;1.88;;;;;;;11.77;72.48;101685.78;5013147;28;20029;-45
2023/11/26 09:44:42;;;;;;;8.93;2.00;;;;;;;11.88;72.20;101686.03;5013771;28;20033;-45
2023/11/26 09:47:07;;;;;;;7.60;2.00;;;;;;;11.91;71.98;101682.59;5011995;28;20049;-46
2023/11/26 09:49:33;;;;;;;8.68;2.00;;;;;;;12.02;71.67;101681.06;5012697;28;20030;-45
2023/11/26 09:52:01;;;;;;;9.15;1.60;;;;;;;11.59;71.97;101693.19;5012237;28;20038;-46
2023/11/26 09:54:27;;;;;;;7.63;1.90;;;;;;;11.66;72.10;101691.59;5010679;28;20069;-45
2023/11/26 09:56:58;;;;;;;8.80;2.00;;;;;;;11.21;73.32;101694.94;5011260;28;20038;-49
2023/11/26 09:59:29;;;;;;;6.32;1.40;;;;;;;11.21;73.72;101697.56;5011315;28;20546;-46
2023/11/26 10:01:54;;;;;;;7.47;1.50;;;;;;;11.68;72.39;101693.41;5011122;28;20053;-50
2023/11/26 10:04:24;;;;;;;6.70;1.60;;;;;;;11.51;72.45;101699.09;5011510;28;20034;-48
2023/11/26 10:06:54;;;;;;;7.15;1.80;;;;;;;11.34;73.03;101698.72;5011034;28;20046;-44
2023/11/26 10:09:22;;;;;;;9.95;1.67;;;;;;;11.22;73.60;101706.28;5011232;28;20522;-46
2023/11/26 10:11:48;;;;;;;11.52;2.10;;;;;;;11.32;73.10;101706.50;5011275;28;20057;-48
2023/11/26 10:14:18;;;;;;;9.32;1.65;;;;;;;11.36;73.49;101707.47;5010981;28;20193;-48
2023/11/26 10:16:44;;;;;;;3.95;1.60;;;;;;;11.72;71.79;101707.41;5011402;28;20037;-48
2023/11/26 10:19:25;;;;;;;5.95;1.70;;;;;;;11.79;71.73;101697.16;5009295;28;20573;-49
2023/11/26 10:21:55;;;;;;;3.97;1.50;;;;;;;11.98;70.87;101689.69;5010861;28;20121;-46
2023/11/26 10:24:23;;;;;;;5.18;1.52;;;;;;;11.98;70.91;101690.59;5010991;28;20447;-45
2023/11/26 10:26:53;;;;;;;8.77;2.42;;;;;;;11.95;71.40;101687.94;5010587;28;20037;-49
2023/11/26 10:29:22;;;;;;;7.93;2.30;;;;;;;11.94;71.91;101687.88;5010827;28;20034;-45
2023/11/26 10:32:06;;;;;;;12.25;2.17;;;;;;;11.49;72.63;101690.34;5010890;28;20033;-46
2023/11/26 10:34:37;;;;;;;5.57;1.80;;;;;;;11.57;73.23;101694.03;5010859;28;20455;-49
2023/11/26 10:37:17;;;;;;;7.03;2.28;;;;;;;11.60;73.77;101688.84;5010448;28;20065;-50
2023/11/26 10:39:43;;;;;;;7.22;2.40;;;;;;;11.66;73.60;101683.75;5010374;28;20114;-47
2023/11/26 10:42:09;;;;;;;9.05;2.40;;;;;;;11.89;73.48;101679.97;5010641;28;20113;-51
2023/11/26 10:44:38;;;;;;;9.98;2.10;;;;;;;11.76;73.66;101668.38;5010405;28;20084;-49
2023/11/26 10:47:05;;;;;;;8.90;1.80;;;;;;;11.97;72.85;101662.69;5008743;28;20150;-48
2023/11/26 10:49:42;;;;;;;8.57;1.50;;;;;;;11.94;73.77;101665.25;5010269;28;20113;-49
2023/11/26 10:52:13;;;;;;;7.07;1.45;;;;;;;11.90;73.26;101655.56;5010265;28;20484;-47
2023/11/26 10:54:57;;;;;;;8.35;1.27;;;;;;;12.03;72.44;101661.94;5010772;28;20514;-49
2023/11/26 10:57:41;;;;;;;8.00;1.52;;;;;;;12.02;72.41;101660.16;5011203;28;20069;-44
2023/11/26 11:00:18;;;;;;;5.18;1.10;;;;;;;11.89;72.58;101653.84;5010456;28;20415;-46
2023/11/26 11:02:45;;;;;;;6.32;1.30;;;;;;;12.08;72.09;101661.16;5011316;28;20030;-47
2023/11/26 11:05:11;;;;;;;5.30;1.10;;;;;;;11.98;72.00;101668.81;5009975;28;20052;-46
2023/11/26 11:07:38;;;;;;;6.47;1.30;;;;;;;12.00;72.07;101659.28;5010446;28;20903;-45
2023/11/26 11:10:22;;;;;;;6.38;1.20;;;;;;;11.64;72.01;101667.19;5009600;28;20130;-47
2023/11/26 11:12:47;;;;;;;5.05;0.95;;;;;;;11.64;72.48;101664.59;5010354;28;20502;-49
2023/11/26 11:15:16;;;;;;;5.15;1.20;;;;;;;11.77;72.40;101664.88;5009765;28;20038;-44
2023/11/26 11:17:42;;;;;;;6.25;1.40;;;;;;;11.75;72.55;101658.75;5010352;28;20026;-45
2023/11/26 11:20:08;;;;;;;8.35;1.30;;;;;;;11.71;71.97;101658.66;5009278;28;20060;-45
2023/11/26 11:22:35;;;;;;;4.95;1.10;;;;;;;11.90;71.84;101655.56;5008699;28;20030;-47
2023/11/26 11:25:11;;;;;;;7.53;1.30;;;;;;;11.32;73.50;101646.47;5009724;28;20454;-48
2023/11/26 11:27:58;;;;;;;9.32;1.48;;;;;;;11.44;73.94;101655.41;5010101;28;20504;-48
2023/11/26 11:30:33;;;;;;;5.25;1.50;;;;;;;11.32;73.69;101648.19;5008518;28;20622;-45